Palmer, PR (00721)

1:23 AM AST on September 21, 2014 (GMT -0400)
Ciudad Jardin | Change Station
CLOSE
Current Station
Personal Weather Station
Location: Carolina, PR
Elevation: 10 ft
Nearby Weather Stations

Elev 10 ft 18.37 °N, 65.93 °W | Updated 10 minutes ago

Rain
Rain
77.6 °F
Feels Like 80 °F
N
1.0
Wind Variable Wind from SE
Gusts 2.0 mph

Today
High -- | Low -- °F
--% Chance of Precip.
Yesterday
High -- | Low -- °F
Precip. -- in
6:11 AM 6:20 PM
Waning Crescent, 8% visible
Pressure 30.02 in
Visibility 10.0 miles
Clouds Few 2500 ft
Heat Index 80 °F
Dew Point 75 °F
Humidity 91%
Rainfall 0.00 in
Snow Depth Not available.
UV 0 out of 12
Pollen Not available.
Air Quality Not available.
Flu Activity Not available.
METAR TJNR 210453Z AUTO 11008G17KT 10SM FEW025 28/23 A3001 RMK AO2 SLP164 T02830228 $

More Conditions Fewer Conditions

Pressure 30.02 in
Visibility 10.0 miles
Clouds Few 2500 ft
Heat Index 80 °F
Dew Point 75 °F
Humidity 91%
Rainfall 0.00 in
Snow Depth Not available.
UV 0 out of 12
Pollen Not available.
Air Quality Not available.
Flu Activity Not available.
METAR TJNR 210453Z AUTO 11008G17KT 10SM FEW025 28/23 A3001 RMK AO2 SLP164 T02830228 $

More Conditions Fewer Conditions

10-Day Weather Forecast

Almanac

Astronomy

Sep. 21, 2014 Rise Set
Actual Time 6:11 AM AST 6:20 PM AST
Civil Twilight 5:50 AM AST 6:41 PM AST
Nautical Twilight 5:24 AM AST 7:07 PM AST
Astronomical Twilight 4:59 AM AST 7:32 PM AST
Moon 3:58 AM AST 4:41 PM AST
Length of Visible Light 12h 51m
Length of Day
12h 08m
Tomorrow will be 1m 2s shorter.
Waning Crescent, 8% of the Moon is Illuminated
Today
Waning Crescent
Sep 24
New
Oct 1
First Quarter
Oct 8
Full
Oct 15
Last Quarter

Community

WunderPhotos

Upload Photos

1,755,090 photos uploaded!

Nearby

Snow Depth

Station Depth Elevation
No new snow has been reported.

Earthquake Activity

City Distance Mag. Time & Date
No recent earthquake activity has been reported nearby.
Minimum magnitude displayed is 2.5.

Coastal Water Temperatures

Place Temperature
San Juan, PR 84.9 °F
Mayaguez, PR 84.0 °F
Esperanza, PR 84.9 °F

Nearby Weather Stations